Time;durP1;ratioP1;P1;durP2;ratioP2;P2;SDS_P1;SDS_P2;PMS_P1;PMS_P2;Temp;Humidity;BMP_temperature;BMP_pressure;BME280_temperature;BME280_humidity;BME280_pressure;Samples;Min_cycle;Max_cycle;Signal;HPM_P1;HPM_P2
2022/08/22 00:01:01;;;;;;;6.00;2.78;;;;;;;17.93;54.13;100751.44;5056242;28;20103;-50
2022/08/22 00:03:59;;;;;;;4.97;2.55;;;;;;;17.84;53.46;100747.38;5069124;28;20103;-53
2022/08/22 00:06:51;;;;;;;6.18;2.10;;;;;;;17.86;54.12;100755.31;5070136;28;20399;-52
2022/08/22 00:09:43;;;;;;;3.47;2.53;;;;;;;17.69;53.53;100741.56;5055642;28;20543;-50
2022/08/22 00:12:35;;;;;;;4.30;1.83;;;;;;;17.76;54.62;100761.31;5055609;28;20147;-49
2022/08/22 00:15:11;;;;;;;3.10;1.63;;;;;;;17.69;54.04;100757.88;5055686;28;20048;-52
2022/08/22 00:17:59;;;;;;;6.25;1.90;;;;;;;17.62;54.52;100741.66;5055188;28;20543;-48
2022/08/22 00:20:35;;;;;;;4.05;2.30;;;;;;;17.60;53.68;100755.47;5057332;28;20029;-49
2022/08/22 00:23:10;;;;;;;3.88;2.10;;;;;;;17.59;54.36;100756.56;5055939;28;20092;-49
2022/08/22 00:25:57;;;;;;;3.70;1.80;;;;;;;17.57;54.74;100761.41;5056694;28;20478;-48
2022/08/22 00:28:41;;;;;;;4.30;1.73;;;;;;;17.50;54.71;100743.56;5057361;28;20039;-48
2022/08/22 00:31:21;;;;;;;3.43;1.90;;;;;;;17.49;55.10;100750.03;5072632;28;20068;-52
2022/08/22 00:34:05;;;;;;;3.78;1.35;;;;;;;17.46;54.54;100751.34;5058406;28;20021;-49
2022/08/22 00:36:39;;;;;;;5.67;2.20;;;;;;;17.39;54.29;100740.56;5056453;28;20111;-54
2022/08/22 00:39:15;;;;;;;2.75;1.73;;;;;;;17.41;55.20;100737.63;5057332;28;20033;-51
2022/08/22 00:42:20;;;;;;;3.53;1.70;;;;;;;17.37;55.81;100733.72;5056483;28;20029;-54
2022/08/22 00:45:13;;;;;;;4.03;1.60;;;;;;;17.35;56.03;100738.56;5058392;28;20039;-53
2022/08/22 00:48:04;;;;;;;3.30;1.50;;;;;;;17.31;55.37;100738.19;5069941;28;20124;-52
2022/08/22 00:51:07;;;;;;;3.00;1.75;;;;;;;17.29;56.41;100732.16;5057139;28;20032;-51
2022/08/22 00:54:03;;;;;;;3.88;2.05;;;;;;;17.27;55.99;100736.97;5059272;28;20373;-53
2022/08/22 00:57:08;;;;;;;3.70;2.00;;;;;;;17.27;56.87;100736.16;5061495;28;20028;-53
2022/08/22 01:00:04;;;;;;;2.88;1.38;;;;;;;17.24;56.86;100737.47;5045614;28;20025;-50
2022/08/22 01:03:00;;;;;;;3.33;1.95;;;;;;;17.18;57.93;100739.22;5077304;28;20039;-53
2022/08/22 01:05:55;;;;;;;5.18;2.00;;;;;;;17.15;56.76;100736.94;5077032;28;20503;-48
2022/08/22 01:08:46;;;;;;;2.85;1.80;;;;;;;17.13;56.68;100733.66;5075744;28;20186;-49
2022/08/22 01:11:51;;;;;;;4.85;1.90;;;;;;;17.12;58.10;100729.25;5060992;28;20028;-49
2022/08/22 01:14:45;;;;;;;8.00;2.10;;;;;;;17.10;56.79;100733.28;5061180;28;20029;-50
2022/08/22 01:17:51;;;;;;;8.38;2.00;;;;;;;17.04;59.59;100724.16;5043873;28;20029;-52
2022/08/22 01:20:55;;;;;;;5.70;2.13;;;;;;;17.02;58.14;100720.84;5061117;28;20115;-50
2022/08/22 01:23:57;;;;;;;3.80;1.58;;;;;;;16.96;58.58;100719.91;5074443;28;20454;-50
2022/08/22 01:27:02;;;;;;;6.65;2.13;;;;;;;16.95;58.61;100720.13;5057608;28;20127;-49
2022/08/22 01:30:08;;;;;;;1.88;1.40;;;;;;;16.92;58.88;100726.84;5043913;28;20028;-53
2022/08/22 01:33:14;;;;;;;3.00;1.63;;;;;;;16.88;58.92;100731.03;5060277;28;20062;-53
2022/08/22 01:36:12;;;;;;;4.25;1.90;;;;;;;16.81;58.53;100733.00;5060548;28;20041;-49
2022/08/22 01:39:18;;;;;;;4.45;2.00;;;;;;;16.81;58.75;100741.97;5061129;28;20036;-50
2022/08/22 01:42:05;;;;;;;2.42;1.73;;;;;;;16.78;59.06;100742.41;5060913;28;20025;-48
2022/08/22 01:44:56;;;;;;;3.08;1.65;;;;;;;16.76;58.86;100736.41;5075967;28;20024;-51
2022/08/22 01:47:38;;;;;;;5.53;1.75;;;;;;;16.76;59.04;100735.56;5075256;28;20039;-50
2022/08/22 01:50:29;;;;;;;2.60;1.58;;;;;;;16.73;59.53;100739.56;5075548;28;20039;-48
2022/08/22 01:53:23;;;;;;;5.35;1.70;;;;;;;16.71;59.40;100743.56;5055433;28;20062;-49
2022/08/22 01:56:04;;;;;;;4.10;1.73;;;;;;;16.67;59.32;100740.47;5054555;28;20037;-47
2022/08/22 01:58:35;;;;;;;5.05;1.70;;;;;;;16.63;58.92;100744.69;5055015;28;20052;-49
2022/08/22 02:01:40;;;;;;;1.95;1.10;;;;;;;16.59;60.13;100738.06;5037934;28;20397;-50
2022/08/22 02:04:20;;;;;;;4.82;1.65;;;;;;;16.54;59.69;100736.03;5054524;28;20040;-48
2022/08/22 02:07:01;;;;;;;7.85;1.88;;;;;;;16.51;61.29;100725.66;5055078;28;20036;-49
2022/08/22 02:09:59;;;;;;;4.28;2.22;;;;;;;16.49;60.53;100737.75;5055176;28;20031;-53
2022/08/22 02:13:01;;;;;;;4.30;1.83;;;;;;;16.47;60.62;100732.56;5054120;28;20025;-48
2022/08/22 02:15:48;;;;;;;2.13;1.35;;;;;;;16.40;60.56;100721.81;5054252;28;20036;-48
2022/08/22 02:18:54;;;;;;;3.47;1.70;;;;;;;16.37;61.39;100724.97;5054853;28;20557;-49
2022/08/22 02:21:39;;;;;;;2.65;1.42;;;;;;;16.28;60.78;100710.06;5054614;28;20032;-48
2022/08/22 02:24:21;;;;;;;5.00;1.60;;;;;;;16.34;60.68;100719.16;5054857;28;20370;-50
2022/08/22 02:27:14;;;;;;;3.17;1.42;;;;;;;16.21;60.88;100703.88;5054948;28;20366;-48
2022/08/22 02:29:49;;;;;;;4.03;1.75;;;;;;;16.22;60.87;100710.97;5040021;28;20029;-49
2022/08/22 02:32:48;;;;;;;3.63;1.70;;;;;;;16.16;62.02;100701.03;5020484;28;20017;-49
2022/08/22 02:35:41;;;;;;;4.13;1.50;;;;;;;16.21;60.82;100715.56;5053635;28;20111;-51
2022/08/22 02:38:30;;;;;;;3.75;1.83;;;;;;;16.19;62.11;100716.81;5053847;28;20033;-50
2022/08/22 02:41:23;;;;;;;5.72;2.40;;;;;;;16.14;62.36;100711.25;5054031;28;20040;-49
2022/08/22 02:43:57;;;;;;;6.78;2.03;;;;;;;16.11;61.48;100707.13;5053492;28;20546;-50
2022/08/22 02:46:50;;;;;;;4.13;1.83;;;;;;;16.08;61.70;100701.31;5037262;28;20477;-48
2022/08/22 02:49:33;;;;;;;2.67;1.60;;;;;;;16.03;62.07;100702.81;5038009;28;20033;-51
2022/08/22 02:52:11;;;;;;;7.30;1.90;;;;;;;16.01;61.75;100693.25;5048349;28;20075;-51
2022/08/22 02:54:47;;;;;;;3.20;1.55;;;;;;;15.94;61.66;100685.19;5055303;28;20033;-54
2022/08/22 02:57:23;;;;;;;5.13;1.85;;;;;;;15.93;61.95;100693.53;5055565;28;20029;-50
2022/08/22 03:00:13;;;;;;;10.23;4.45;;;;;;;15.93;62.39;100704.38;5056060;28;20055;-52
2022/08/22 03:03:00;;;;;;;4.32;3.67;;;;;;;15.91;62.70;100699.19;5056303;28;20033;-52
2022/08/22 03:05:48;;;;;;;4.72;3.15;;;;;;;15.83;63.11;100688.66;5054522;28;20449;-49
2022/08/22 03:08:33;;;;;;;3.47;1.80;;;;;;;15.80;62.91;100698.03;5054140;28;20033;-49
2022/08/22 03:11:10;;;;;;;6.55;2.30;;;;;;;15.73;62.54;100694.53;5055140;28;20063;-50
2022/08/22 03:13:48;;;;;;;7.55;2.15;;;;;;;15.70;62.74;100686.03;5056053;28;20028;-51
2022/08/22 03:16:27;;;;;;;5.78;1.60;;;;;;;15.77;62.71;100698.50;5054559;28;20037;-54
2022/08/22 03:19:10;;;;;;;4.57;1.67;;;;;;;15.74;63.24;100687.28;5053472;28;20032;-50
2022/08/22 03:22:02;;;;;;;5.30;2.25;;;;;;;15.69;63.94;100685.19;5054037;28;20032;-50
2022/08/22 03:24:39;;;;;;;2.30;1.50;;;;;;;15.67;63.43;100680.00;5066220;28;20041;-49
2022/08/22 03:27:34;;;;;;;3.67;1.95;;;;;;;15.62;63.54;100673.56;5053402;28;20033;-50
2022/08/22 03:30:14;;;;;;;2.80;1.77;;;;;;;15.59;63.76;100682.97;5052585;28;20025;-51
2022/08/22 03:32:53;;;;;;;2.72;1.48;;;;;;;15.58;63.84;100685.91;5052622;28;20048;-49
2022/08/22 03:35:29;;;;;;;3.17;1.60;;;;;;;15.54;63.64;100680.09;5052409;28;20040;-49
2022/08/22 03:38:12;;;;;;;6.18;2.08;;;;;;;15.38;64.45;100664.41;5053056;28;20450;-48
2022/08/22 03:41:10;;;;;;;4.32;1.67;;;;;;;15.38;64.23;100678.78;5068848;28;20064;-49
2022/08/22 03:44:05;;;;;;;3.78;1.83;;;;;;;15.43;65.04;100695.22;5067015;28;20029;-51
2022/08/22 03:47:10;;;;;;;4.72;1.92;;;;;;;15.42;64.99;100700.84;5065707;28;20060;-50
2022/08/22 03:49:58;;;;;;;3.30;1.70;;;;;;;15.42;64.52;100703.53;5053001;28;20104;-50
2022/08/22 03:53:07;;;;;;;7.47;2.35;;;;;;;15.37;66.11;100700.66;5070607;28;20053;-50
2022/08/22 03:56:01;;;;;;;3.55;1.52;;;;;;;15.34;64.84;100696.53;5042334;28;20083;-49
2022/08/22 03:58:54;;;;;;;3.37;1.60;;;;;;;15.26;64.95;100678.66;5055613;28;20024;-49
2022/08/22 04:01:54;;;;;;;5.07;2.08;;;;;;;15.29;65.14;100686.34;5073941;28;20024;-49
2022/08/22 04:04:47;;;;;;;4.53;2.25;;;;;;;14.99;64.78;100647.41;5072828;28;20485;-51
2022/08/22 04:07:46;;;;;;;3.75;1.83;;;;;;;14.94;65.70;100656.22;5055719;28;20055;-53
2022/08/22 04:10:28;;;;;;;4.03;2.00;;;;;;;15.12;65.12;100690.63;5072685;28;20396;-52
2022/08/22 04:13:23;;;;;;;2.75;1.60;;;;;;;15.17;65.28;100703.50;5072305;28;20029;-53
2022/08/22 04:16:13;;;;;;;4.03;1.95;;;;;;;15.11;65.56;100699.78;5074887;28;20044;-49
2022/08/22 04:19:05;;;;;;;5.28;1.70;;;;;;;15.12;65.09;100695.19;5077064;28;20111;-51
2022/08/22 04:22:00;;;;;;;4.30;1.75;;;;;;;15.09;65.47;100701.88;5076185;28;20032;-50
2022/08/22 04:24:51;;;;;;;3.20;1.77;;;;;;;15.02;65.98;100698.38;5076392;28;20041;-50
2022/08/22 04:27:26;;;;;;;6.82;1.60;;;;;;;15.03;65.60;100708.16;5077445;28;20410;-48
2022/08/22 04:30:21;;;;;;;3.45;1.73;;;;;;;14.99;66.41;100725.84;5043062;28;20534;-51
2022/08/22 04:33:07;;;;;;;;;;;;;;;14.98;67.51;100735.84;5077470;28;20025;-51
2022/08/22 04:35:40;;;;;;;7.47;1.58;;;;;;;14.95;65.93;100736.31;5064399;28;19916;-54
2022/08/22 04:38:19;;;;;;;6.22;2.40;;;;;;;14.87;66.48;100728.41;5080295;28;20353;-52
2022/08/22 04:40:51;;;;;;;3.83;2.08;;;;;;;14.95;67.08;100751.69;5078887;28;20060;-53
2022/08/22 04:43:43;;;;;;;3.33;2.05;;;;;;;14.97;67.25;100747.72;5082426;28;20024;-53
2022/08/22 04:46:19;;;;;;;3.67;2.00;;;;;;;14.84;66.86;100726.13;5083007;28;20064;-53
2022/08/22 04:49:11;;;;;;;8.45;2.30;;;;;;;14.95;67.48;100741.72;5078255;28;20033;-50
2022/08/22 04:51:46;;;;;;;9.68;2.30;;;;;;;14.87;66.58;100723.00;5077500;28;20190;-49
2022/08/22 04:54:40;;;;;;;7.25;2.25;;;;;;;14.90;66.85;100723.41;5078791;28;20020;-52
2022/08/22 04:57:20;;;;;;;5.53;2.30;;;;;;;14.92;67.13;100730.50;5076394;28;20392;-51
2022/08/22 04:59:46;;;;;;;6.15;2.20;;;;;;;14.79;67.47;100705.16;5077166;28;20071;-49
2022/08/22 05:02:21;;;;;;;9.63;2.60;;;;;;;14.92;67.60;100727.78;5076714;28;20035;-49
2022/08/22 05:04:50;;;;;;;;;;;;;;;14.88;68.73;100722.81;5075996;28;20028;-53
2022/08/22 05:07:22;;;;;;;7.57;2.13;;;;;;;14.84;67.78;100718.88;5076487;28;20302;-49
2022/08/22 05:09:55;;;;;;;8.27;2.50;;;;;;;14.86;67.56;100714.06;5075675;28;20033;-48
2022/08/22 05:12:31;;;;;;;7.07;2.63;;;;;;;14.90;67.95;100723.41;5075996;28;20033;-50
2022/08/22 05:15:04;;;;;;;9.52;2.80;;;;;;;14.88;67.71;100716.56;5076479;28;20051;-48
2022/08/22 05:17:31;;;;;;;7.35;2.65;;;;;;;14.88;67.61;100714.69;5076452;28;20420;-48
2022/08/22 05:20:05;;;;;;;5.50;2.67;;;;;;;14.88;67.59;100709.28;5076084;28;20028;-48
2022/08/22 05:22:39;;;;;;;5.88;1.90;;;;;;;14.87;67.80;100710.31;5058551;28;20370;-48
2022/08/22 05:25:10;;;;;;;7.70;3.55;;;;;;;14.76;69.22;100704.75;5075850;28;20024;-50
2022/08/22 05:27:45;;;;;;;6.90;2.90;;;;;;;14.79;68.77;100718.69;5075331;28;20090;-50
2022/08/22 05:30:17;;;;;;;8.05;2.33;;;;;;;14.84;68.32;100718.88;5060082;28;20098;-50
2022/08/22 05:33:08;;;;;;;6.32;2.25;;;;;;;14.83;68.00;100717.19;5078620;28;20036;-49
2022/08/22 05:35:39;;;;;;;7.45;2.42;;;;;;;14.87;68.23;100717.59;5078381;28;20369;-50
2022/08/22 05:38:13;;;;;;;7.32;2.35;;;;;;;14.92;68.31;100716.97;5077592;28;20103;-49
2022/08/22 05:40:41;;;;;;;10.18;2.65;;;;;;;14.95;68.09;100722.78;5076309;28;20028;-50
2022/08/22 05:43:11;;;;;;;8.75;2.45;;;;;;;15.00;67.71;100725.63;5075480;28;20084;-50
2022/08/22 05:45:39;;;;;;;9.45;2.85;;;;;;;14.98;68.45;100710.69;5057844;28;20042;-49
2022/08/22 05:48:10;;;;;;;4.75;2.25;;;;;;;14.97;67.93;100704.47;5075732;28;20124;-50
2022/08/22 05:50:42;;;;;;;15.23;4.13;;;;;;;14.94;68.77;100704.06;5076300;28;20033;-52
2022/08/22 05:53:15;;;;;;;7.43;2.78;;;;;;;15.02;68.24;100710.03;5076737;28;20029;-49
2022/08/22 05:56:02;;;;;;;6.57;2.40;;;;;;;15.09;69.09;100718.13;5059200;28;20024;-48
2022/08/22 05:58:53;;;;;;;5.97;2.25;;;;;;;15.08;69.17;100719.16;5059263;28;20481;-50
2022/08/22 06:01:33;;;;;;;9.88;2.75;;;;;;;15.04;68.55;100716.06;5077559;28;20034;-49
2022/08/22 06:04:05;;;;;;;7.18;2.47;;;;;;;15.15;68.45;100711.81;5076234;28;20045;-51
2022/08/22 06:07:00;;;;;;;10.98;3.22;;;;;;;15.08;70.67;100697.50;5078586;28;20032;-49
2022/08/22 06:09:52;;;;;;;11.55;3.03;;;;;;;15.03;69.38;100698.16;5078018;28;20033;-52
2022/08/22 06:12:28;;;;;;;17.17;3.90;;;;;;;15.06;70.68;100691.47;5076741;28;20050;-50
2022/08/22 06:15:19;;;;;;;9.38;3.33;;;;;;;15.16;70.42;100681.03;5076975;28;20538;-49
2022/08/22 06:17:51;;;;;;;6.88;3.03;;;;;;;16.86;64.39;100675.38;5059034;28;20436;-49
2022/08/22 06:20:23;;;;;;;4.35;2.15;;;;;;;16.26;64.95;100676.94;5057814;28;20025;-50
2022/08/22 06:22:53;;;;;;;3.58;2.20;;;;;;;15.84;66.17;100674.03;5075722;28;20032;-48
2022/08/22 06:25:26;;;;;;;5.72;2.50;;;;;;;15.68;67.85;100689.78;5075442;28;20032;-53
2022/08/22 06:27:54;;;;;;;8.20;3.00;;;;;;;15.52;68.03;100674.09;5075128;28;20028;-49
2022/08/22 06:30:23;;;;;;;8.38;2.67;;;;;;;15.62;68.27;100685.25;5057857;28;20117;-49
2022/08/22 06:32:53;;;;;;;6.90;2.38;;;;;;;15.48;68.72;100670.16;5075565;28;20028;-50
2022/08/22 06:36:29;;;;;;;12.85;3.10;;;;;;;15.53;69.23;100691.19;5076517;28;20032;-49
2022/08/22 06:38:27;;;;;;;7.78;2.90;;;;;;;15.58;68.66;100681.34;5060285;28;20055;-51
2022/08/22 06:40:54;;;;;;;10.35;3.28;;;;;;;15.60;68.25;100681.94;5076209;28;20074;-51
2022/08/22 06:43:23;;;;;;;14.68;2.72;;;;;;;15.63;68.72;100675.25;5058215;28;20096;-52
2022/08/22 06:45:51;;;;;;;11.68;3.17;;;;;;;15.70;69.36;100683.31;5075560;28;20059;-47
2022/08/22 06:48:22;;;;;;;10.57;3.05;;;;;;;15.61;70.27;100670.06;5058297;28;20074;-53
2022/08/22 06:50:55;;;;;;;5.85;2.33;;;;;;;15.72;69.27;100683.94;5075184;28;20044;-52
2022/08/22 06:53:26;;;;;;;11.18;3.42;;;;;;;15.76;69.62;100682.47;5058543;28;20453;-50
2022/08/22 06:55:56;;;;;;;6.13;2.22;;;;;;;15.67;69.73;100661.06;5058344;28;20083;-48
2022/08/22 06:58:27;;;;;;;7.82;2.83;;;;;;;15.75;70.69;100678.06;5057898;28;20032;-48
2022/08/22 07:00:57;;;;;;;10.98;2.63;;;;;;;15.74;70.38;100679.16;5074523;28;20039;-48
2022/08/22 07:03:34;;;;;;;6.47;3.17;;;;;;;15.77;70.45;100659.75;5075155;28;20028;-49
2022/08/22 07:06:02;;;;;;;12.48;3.10;;;;;;;15.90;70.42;100677.72;5077060;28;20039;-50
2022/08/22 07:08:33;;;;;;;5.70;2.50;;;;;;;15.93;70.04;100675.41;5077310;28;20039;-50
2022/08/22 07:11:22;;;;;;;13.23;3.67;;;;;;;15.92;70.52;100670.22;5078634;28;20024;-49
2022/08/22 07:13:55;;;;;;;10.20;2.55;;;;;;;16.00;70.11;100672.63;5060201;28;20020;-50
2022/08/22 07:16:34;;;;;;;7.05;2.60;;;;;;;16.13;69.21;100679.78;5078176;28;20028;-56
2022/08/22 07:19:00;;;;;;;5.72;2.33;;;;;;;16.14;69.27;100670.59;5058980;28;20086;-49
2022/08/22 07:21:30;;;;;;;10.48;2.42;;;;;;;16.17;69.72;100667.44;5076606;28;20032;-56
2022/08/22 07:24:00;;;;;;;16.02;2.80;;;;;;;16.32;68.37;100681.44;5075904;28;20051;-58
2022/08/22 07:26:51;;;;;;;12.68;2.70;;;;;;;16.37;68.82;100669.94;5076391;28;20077;-49
2022/08/22 07:29:57;;;;;;;9.77;3.00;;;;;;;16.37;69.23;100665.34;5073710;28;20029;-50
2022/08/22 07:32:44;;;;;;;8.13;2.60;;;;;;;16.52;68.43;100678.50;5042277;28;20028;-52
2022/08/22 07:35:18;;;;;;;9.05;3.42;;;;;;;16.59;68.43;100681.13;5074726;28;20039;-50
2022/08/22 07:37:57;;;;;;;8.45;2.35;;;;;;;16.59;68.46;100667.56;5074468;28;20024;-49
2022/08/22 07:40:52;;;;;;;5.30;2.10;;;;;;;16.74;68.17;100675.31;5073476;28;20029;-48
2022/08/22 07:43:58;;;;;;;13.05;2.30;;;;;;;16.89;68.22;100688.50;5056536;28;20024;-48
2022/08/22 07:46:40;;;;;;;9.95;2.20;;;;;;;16.93;67.24;100678.84;5059561;28;20043;-49
2022/08/22 07:49:21;;;;;;;8.55;2.85;;;;;;;17.09;67.86;100685.50;5040252;28;20162;-51
2022/08/22 07:51:54;;;;;;;11.15;3.15;;;;;;;17.18;66.67;100694.97;5078370;28;20096;-48
2022/08/22 07:54:41;;;;;;;19.20;3.35;;;;;;;17.30;66.44;100695.00;5078712;28;20035;-51
2022/08/22 07:57:13;;;;;;;11.82;3.03;;;;;;;17.31;66.11;100673.03;5060701;28;20031;-49
2022/08/22 07:59:46;;;;;;;12.73;2.90;;;;;;;17.40;66.23;100681.66;5060205;28;20074;-49
2022/08/22 08:02:15;;;;;;;10.45;2.42;;;;;;;17.51;65.66;100686.28;5043435;28;20048;-47
2022/08/22 08:04:42;;;;;;;11.13;2.38;;;;;;;17.52;65.29;100682.50;5079255;28;20055;-49
2022/08/22 08:07:13;;;;;;;8.68;2.20;;;;;;;17.65;64.75;100694.22;5060080;28;20110;-49
2022/08/22 08:09:43;;;;;;;9.68;2.20;;;;;;;17.78;64.78;100697.53;5059910;28;20059;-51
2022/08/22 08:12:11;;;;;;;13.48;2.80;;;;;;;17.86;64.78;100696.38;5060320;28;20029;-51
2022/08/22 08:14:41;;;;;;;14.15;2.17;;;;;;;17.88;64.51;100685.28;5059507;28;20393;-51
2022/08/22 08:17:16;;;;;;;9.95;2.15;;;;;;;18.02;64.26;100700.28;5077580;28;20025;-50
2022/08/22 08:19:44;;;;;;;10.45;2.28;;;;;;;18.12;63.66;100688.81;5078635;28;20047;-51
2022/08/22 08:22:22;;;;;;;10.45;2.67;;;;;;;18.28;64.02;100689.97;5061230;28;20123;-52
2022/08/22 08:24:49;;;;;;;9.75;2.40;;;;;;;18.41;63.24;100688.88;5081510;28;20060;-54
2022/08/22 08:30:17;;;;;;;10.38;2.60;;;;;;;18.45;62.77;100662.84;5064388;28;20040;-50
2022/08/22 08:32:48;;;;;;;14.30;2.85;;;;;;;18.61;62.11;100678.41;5078993;28;20027;-50
2022/08/22 08:35:26;;;;;;;11.02;2.65;;;;;;;18.66;62.19;100677.69;5061176;28;20036;-50
2022/08/22 08:38:16;;;;;;;11.00;2.75;;;;;;;18.82;62.05;100676.94;5061754;28;20028;-52
2022/08/22 08:41:21;;;;;;;8.38;1.90;;;;;;;18.95;61.51;100670.38;5079494;28;20032;-50
2022/08/22 08:44:27;;;;;;;7.60;2.05;;;;;;;19.14;61.21;100670.97;5068142;28;20074;-52
2022/08/22 08:47:21;;;;;;;12.77;2.45;;;;;;;19.39;60.21;100670.59;5066315;28;20386;-51
2022/08/22 08:50:05;;;;;;;7.57;2.40;;;;;;;19.56;60.27;100653.41;5068359;28;20028;-50
2022/08/22 08:53:01;;;;;;;6.30;1.92;;;;;;;19.65;58.95;100652.75;5081599;28;20381;-49
2022/08/22 08:56:01;;;;;;;7.43;1.50;;;;;;;19.63;58.90;100648.59;5076255;28;20035;-54
2022/08/22 08:58:43;;;;;;;6.30;1.90;;;;;;;19.91;57.95;100629.44;5059292;28;20028;-51
2022/08/22 09:01:32;;;;;;;6.57;2.25;;;;;;;20.02;57.39;100637.75;5058066;28;20028;-54
2022/08/22 09:04:38;;;;;;;7.80;1.88;;;;;;;20.56;55.89;100646.06;5077220;28;20029;-52
2022/08/22 09:07:38;;;;;;;7.03;1.90;;;;;;;20.80;54.17;100649.34;5061476;28;20067;-50
2022/08/22 09:10:30;;;;;;;8.35;2.00;;;;;;;20.52;54.25;100639.44;5042203;28;20044;-50
2022/08/22 09:13:26;;;;;;;7.47;2.35;;;;;;;20.41;55.40;100664.97;5058125;28;20029;-49
2022/08/22 09:16:23;;;;;;;7.00;2.00;;;;;;;20.19;54.91;100668.53;5076240;28;20025;-49
2022/08/22 09:19:14;;;;;;;11.38;2.63;;;;;;;20.46;54.18;100667.75;5044938;28;20040;-48
2022/08/22 09:22:12;;;;;;;11.70;1.75;;;;;;;22.56;48.51;100655.75;5058303;28;20044;-52
2022/08/22 09:25:07;;;;;;;3.58;1.65;;;;;;;23.76;47.81;100647.38;5058334;28;20039;-49
2022/08/22 09:27:44;;;;;;;4.22;1.60;;;;;;;25.75;45.09;100638.25;5075547;28;20064;-50
2022/08/22 09:30:15;;;;;;;6.95;1.60;;;;;;;27.16;41.34;100635.03;5076702;28;20032;-51
2022/08/22 09:32:53;;;;;;;7.57;1.70;;;;;;;25.35;42.32;100632.03;5058924;28;20017;-49
2022/08/22 09:35:30;;;;;;;6.63;2.28;;;;;;;25.90;41.43;100613.31;5076531;28;20389;-49
2022/08/22 09:38:27;;;;;;;5.53;2.03;;;;;;;28.31;37.94;100622.44;5075788;28;20028;-49
2022/08/22 09:41:20;;;;;;;9.27;2.15;;;;;;;29.26;35.18;100614.16;5075074;28;20040;-53
2022/08/22 09:44:01;;;;;;;8.43;2.70;;;;;;;27.54;37.21;100637.72;5076379;28;20028;-51
2022/08/22 09:46:38;;;;;;;4.57;1.35;;;;;;;26.73;40.64;100627.72;5075796;28;20032;-48
2022/08/22 09:49:32;;;;;;;8.27;2.38;;;;;;;25.80;39.55;100633.53;5075881;28;20064;-48
2022/08/22 09:52:29;;;;;;;6.72;1.90;;;;;;;25.21;40.31;100627.19;5075408;28;20045;-48
2022/08/22 09:55:04;;;;;;;4.57;1.60;;;;;;;25.07;41.39;100602.28;5074841;28;20477;-48
2022/08/22 09:57:42;;;;;;;4.88;1.40;;;;;;;25.28;40.21;100632.38;5075844;28;20056;-52
2022/08/22 10:00:33;;;;;;;4.70;1.80;;;;;;;26.27;38.83;100618.13;5075268;28;20213;-49
2022/08/22 10:03:10;;;;;;;3.80;1.45;;;;;;;27.76;37.51;100623.22;5075669;28;20110;-48
2022/08/22 10:05:53;;;;;;;6.85;1.75;;;;;;;27.76;34.73;100628.75;5076185;28;20035;-49
2022/08/22 10:08:49;;;;;;;6.28;2.00;;;;;;;27.78;35.03;100619.03;5079009;28;20032;-48
2022/08/22 10:11:23;;;;;;;6.28;2.00;;;;;;;27.30;35.51;100624.88;5079556;28;20499;-49
2022/08/22 10:14:15;;;;;;;6.68;2.03;;;;;;;26.98;35.60;100623.72;5076219;28;20059;-48
2022/08/22 10:16:58;;;;;;;6.63;1.85;;;;;;;27.15;35.65;100634.19;5060799;28;20028;-48
2022/08/22 10:19:31;;;;;;;6.72;1.90;;;;;;;27.25;36.36;100622.19;5075963;28;20120;-50
2022/08/22 10:22:22;;;;;;;8.02;1.88;;;;;;;27.49;34.52;100619.31;5075266;28;20107;-49
2022/08/22 10:25:06;;;;;;;4.40;1.52;;;;;;;27.53;34.69;100620.34;5058326;28;20047;-48
2022/08/22 10:27:47;;;;;;;;;;;;;;;27.72;32.94;100619.47;5076096;28;20032;-50
2022/08/22 10:30:24;;;;;;;6.30;1.45;;;;;;;27.74;34.97;100620.78;5076391;28;19909;-50
2022/08/22 10:33:03;;;;;;;5.72;1.60;;;;;;;27.27;36.21;100608.16;5057754;28;20025;-49
2022/08/22 10:35:37;;;;;;;5.30;1.58;;;;;;;27.50;35.87;100609.91;5077267;28;20043;-50
2022/08/22 10:38:13;;;;;;;4.30;1.63;;;;;;;26.99;33.50;100591.50;5078200;28;20071;-49
2022/08/22 10:41:03;;;;;;;5.00;1.77;;;;;;;27.05;32.91;100598.53;5042599;28;20039;-48
2022/08/22 10:43:57;;;;;;;3.47;1.58;;;;;;;27.67;33.52;100614.84;5058920;28;20193;-52
2022/08/22 10:46:49;;;;;;;4.22;1.80;;;;;;;30.35;29.62;100595.38;5044855;28;20064;-51
2022/08/22 10:49:31;;;;;;;5.43;1.52;;;;;;;30.01;29.38;100596.94;5061286;28;20040;-48
2022/08/22 10:52:05;;;;;;;4.22;1.10;;;;;;;30.05;31.36;100595.13;5057207;28;20052;-48
2022/08/22 10:55:01;;;;;;;3.88;1.60;;;;;;;30.12;30.38;100595.47;5057536;28;20043;-48
2022/08/22 10:57:58;;;;;;;3.50;1.50;;;;;;;30.00;27.88;100592.53;5060473;28;20171;-49
2022/08/22 11:00:48;;;;;;;11.02;2.08;;;;;;;30.58;27.19;100590.53;5073747;28;20046;-49
2022/08/22 11:03:35;;;;;;;5.00;2.22;;;;;;;31.25;26.10;100589.97;5073863;28;20032;-47
2022/08/22 11:06:09;;;;;;;6.07;2.33;;;;;;;31.50;27.08;100590.28;5076138;28;20036;-52
2022/08/22 11:09:14;;;;;;;3.28;1.80;;;;;;;31.31;25.08;100560.06;5077388;28;20036;-52
2022/08/22 11:12:09;;;;;;;6.65;2.15;;;;;;;31.72;26.24;100580.03;5044564;28;20021;-52
2022/08/22 11:15:03;;;;;;;4.25;2.08;;;;;;;32.57;24.56;100573.44;5073361;28;20037;-50
2022/08/22 11:18:02;;;;;;;4.43;2.10;;;;;;;32.42;25.33;100567.34;5057086;28;20047;-49
2022/08/22 11:20:48;;;;;;;5.90;2.30;;;;;;;34.25;23.35;100558.09;5074405;28;20024;-50
2022/08/22 11:23:34;;;;;;;4.60;1.67;;;;;;;34.97;21.68;100549.81;5074335;28;20084;-49
2022/08/22 11:26:36;;;;;;;4.65;1.77;;;;;;;35.61;22.08;100553.47;5059344;28;20451;-48
2022/08/22 11:29:19;;;;;;;4.65;1.65;;;;;;;36.42;21.23;100555.75;5060490;28;20539;-50
2022/08/22 11:31:56;;;;;;;3.63;1.65;;;;;;;36.79;21.64;100546.94;5078734;28;20029;-49
2022/08/22 11:34:50;;;;;;;7.20;2.20;;;;;;;36.98;19.87;100545.25;5060696;28;20104;-47
2022/08/22 11:37:43;;;;;;;3.47;1.88;;;;;;;37.47;18.50;100546.53;5077894;28;20036;-50
2022/08/22 11:40:32;;;;;;;4.83;1.80;;;;;;;36.90;18.37;100552.69;5060589;28;20113;-51
2022/08/22 11:43:25;;;;;;;3.88;1.65;;;;;;;37.05;21.08;100562.19;5078994;28;20107;-50
2022/08/22 11:45:56;;;;;;;2.55;1.40;;;;;;;35.15;22.25;100553.09;5078604;28;20090;-50
2022/08/22 11:48:40;;;;;;;2.97;1.58;;;;;;;34.28;22.76;100563.78;5078490;28;20408;-50
2022/08/22 11:51:34;;;;;;;3.83;1.38;;;;;;;35.63;21.04;100553.13;5079173;28;20056;-51
2022/08/22 11:54:28;;;;;;;3.45;1.35;;;;;;;37.27;20.32;100537.38;5062780;28;20481;-49
2022/08/22 11:57:08;;;;;;;1.38;1.20;;;;;;;37.52;19.61;100526.56;5076990;28;20041;-51
2022/08/22 12:00:13;;;;;;;1.65;1.10;;;;;;;38.26;18.60;100536.50;5077411;28;20111;-53
2022/08/22 12:02:58;;;;;;;2.15;0.57;;;;;;;39.02;18.79;100536.19;5045801;28;20037;-52
2022/08/22 12:05:33;;;;;;;1.88;0.90;;;;;;;37.60;20.15;100527.53;5077530;28;20033;-53
2022/08/22 12:08:39;;;;;;;6.15;0.98;;;;;;;35.84;21.67;100527.69;5077444;28;20067;-52
2022/08/22 12:11:37;;;;;;;5.80;1.10;;;;;;;35.82;22.22;100530.03;5045726;28;20090;-51
2022/08/22 12:14:16;;;;;;;1.85;0.80;;;;;;;37.61;20.54;100529.13;5067495;28;20395;-49
2022/08/22 12:17:07;;;;;;;1.63;1.10;;;;;;;36.69;21.11;100519.53;5078247;28;20071;-50
2022/08/22 12:19:48;;;;;;;2.75;1.60;;;;;;;36.67;21.39;100518.28;5077987;28;20492;-52
2022/08/22 12:22:54;;;;;;;3.38;0.95;;;;;;;35.53;21.91;100512.59;5059802;28;20021;-48
2022/08/22 12:25:49;;;;;;;1.02;0.75;;;;;;;34.36;23.80;100502.66;5064942;28;20420;-50
2022/08/22 12:28:30;;;;;;;2.08;0.95;;;;;;;34.30;23.83;100510.47;5065868;28;20021;-49
2022/08/22 12:31:26;;;;;;;1.85;0.98;;;;;;;34.63;23.34;100498.25;5061602;28;20052;-49
2022/08/22 12:34:06;;;;;;;2.40;0.77;;;;;;;32.75;26.24;100507.41;5060752;28;20029;-48
2022/08/22 12:36:59;;;;;;;2.33;0.65;;;;;;;31.58;26.79;100513.63;5077771;28;20115;-49
2022/08/22 12:39:54;;;;;;;2.05;0.98;;;;;;;31.11;28.59;100508.06;5059309;28;20439;-55
2022/08/22 12:42:43;;;;;;;2.05;0.75;;;;;;;30.97;28.39;100500.78;5061845;28;20032;-50
2022/08/22 12:45:39;;;;;;;2.53;0.93;;;;;;;30.93;28.25;100510.09;5077257;28;20036;-49
2022/08/22 12:48:44;;;;;;;1.20;0.68;;;;;;;29.92;30.31;100522.97;5076079;28;20102;-48